Sea Coast — WDC9153 — position and weather

sailwx.info

Track history (hours):
 
Tides and Currents Weather Stations Pressure Air Temp Water Temp Dewpoint Dewpoint Depression Visibility Wind Speed Wind Dir Waves Ship Positions

Sea Coast

Owner: Dann Marine Towing, LC, Chesapeake City, MD. More information available from US FCC via Universal Licensing System and Coast Guard Vessel Documentation Center.

Last reported at 2017-Sep-21 04:31 UTC. Time now 2017-Sep-21 05:00 UTC.
Position N 39°29' W 075°33'.

; draft 2.7 m.

Type: Tug. MMSI: 367098280.

Date/timePositionNaut miles runAvg speedWind from/ knotsBaromVisibWave heightAir tempDewpointWater temp
2017-Sep-21 04:31N 39°29' W 075°33'0 0.0
2017-Sep-21 04:01N 39°29' W 075°33'0 0.0
2017-Sep-21 03:31N 39°29' W 075°33'0 0.0
2017-Sep-21 03:00N 39°29' W 075°33'0 0.0
2017-Sep-21 02:31N 39°29' W 075°33'0 0.0
2017-Sep-21 02:00N 39°29' W 075°33'0 0.0
2017-Sep-21 01:30N 39°29' W 075°33'0 0.0
2017-Sep-21 01:00N 39°29' W 075°33'0 0.0
2017-Sep-21 00:30N 39°29' W 075°33'0 0.3
2017-Sep-21 00:01N 39°29' W 075°34'0 0.1
2017-Sep-20 23:30N 39°29' W 075°33'0 0.0
2017-Sep-20 23:01N 39°29' W 075°33'0 0.0
2017-Sep-20 22:30N 39°29' W 075°33'0 0.0
2017-Sep-20 22:01N 39°29' W 075°33'0 0.0
2017-Sep-20 21:30N 39°29' W 075°33'0 0.2
2017-Sep-20 21:01N 39°29' W 075°33'4 8.5
2017-Sep-20 20:31N 39°33' W 075°32'2 4.7
2017-Sep-20 20:01N 39°34' W 075°29'0 0.5
2017-Sep-20 19:31N 39°35' W 075°29'0 0.6
2017-Sep-20 19:00N 39°34' W 075°29'0 0.5
2017-Sep-20 18:30N 39°35' W 075°29'0 0.5
2017-Sep-20 18:01N 39°34' W 075°29'0 0.0
2017-Sep-20 17:31N 39°34' W 075°29'0 0.0
2017-Sep-20 17:00N 39°34' W 075°29'0 0.0
2017-Sep-20 16:31N 39°34' W 075°29'0 0.0
2017-Sep-20 16:01N 39°34' W 075°29'0 0.0
2017-Sep-20 15:30N 39°34' W 075°29'0 0.0
2017-Sep-20 15:01N 39°34' W 075°29'0 0.0
2017-Sep-20 14:00N 39°34' W 075°29'0 0.0
2017-Sep-20 13:30N 39°34' W 075°29'0 0.0
2017-Sep-20 13:00N 39°34' W 075°29'0 0.0
2017-Sep-20 12:30N 39°34' W 075°29'0 0.0
2017-Sep-20 12:00N 39°34' W 075°29'0 0.0
2017-Sep-20 11:30N 39°34' W 075°29'0 0.0
2017-Sep-20 11:00N 39°34' W 075°29'0 0.0
2017-Sep-20 10:31N 39°34' W 075°29'0 0.0
2017-Sep-20 10:01N 39°34' W 075°29'0 0.0
2017-Sep-20 09:30N 39°34' W 075°29'0 0.0
2017-Sep-20 09:01N 39°34' W 075°29'0 0.0
2017-Sep-20 08:30N 39°34' W 075°29'0 0.0
2017-Sep-20 08:01N 39°34' W 075°29'0 0.0
2017-Sep-20 07:31N 39°34' W 075°29'0 0.0
2017-Sep-20 07:01N 39°34' W 075°29'0 0.0
2017-Sep-20 06:30N 39°34' W 075°29'0 0.0
2017-Sep-20 06:00N 39°34' W 075°29'0 0.0
2017-Sep-20 05:30N 39°34' W 075°29'0 0.0
2017-Sep-20 05:01N 39°34' W 075°29'0 0.2
2017-Sep-20 04:30N 39°34' W 075°29'0 0.2
2017-Sep-20 04:01N 39°34' W 075°29'0 0.0
2017-Sep-20 03:30N 39°34' W 075°29'3 6.5
2017-Sep-20 03:01N 39°32' W 075°32'510.7
2017-Sep-20 02:31N 39°27' W 075°33'611.7
2017-Sep-20 02:01N 39°23' W 075°28'4 8.9
2017-Sep-20 01:31N 39°19' W 075°24'1 1.4
2017-Sep-20 01:00N 39°20' W 075°25'1 1.6
2017-Sep-20 00:30N 39°20' W 075°26'1 1.8
2017-Sep-20 00:00N 39°21' W 075°27'1 1.1
2017-Sep-19 23:31N 39°22' W 075°27'1 2.2
2017-Sep-19 23:01N 39°21' W 075°26'1 2.4
2017-Sep-19 22:31N 39°20' W 075°25'1 2.4
2017-Sep-19 22:00N 39°19' W 075°24'1 1.9
2017-Sep-19 21:30N 39°18' W 075°23'1 1.2
2017-Sep-19 21:00N 39°18' W 075°23'1 1.7
2017-Sep-19 20:31N 39°17' W 075°22'1 1.4
2017-Sep-19 20:00N 39°17' W 075°21'0 0.8
2017-Sep-19 19:31N 39°16' W 075°21'0 0.4
2017-Sep-19 19:00N 39°16' W 075°21'0 0.5
2017-Sep-19 18:30N 39°16' W 075°21'611.4
2017-Sep-19 18:01N 39°20' W 075°25'510.6
2017-Sep-19 17:30N 39°24' W 075°30'5 9.8
2017-Sep-19 17:01N 39°28' W 075°34'1 1.8
2017-Sep-19 16:30N 39°29' W 075°33'0 0.1
2017-Sep-19 16:01N 39°29' W 075°33'0 0.3
2017-Sep-19 15:30N 39°29' W 075°33'0 0.0
2017-Sep-19 15:01N 39°29' W 075°33'0 0.0
2017-Sep-19 14:31N 39°29' W 075°33'0 0.0
2017-Sep-19 14:01N 39°29' W 075°33'0 0.0
2017-Sep-19 13:30N 39°29' W 075°33'0 0.0
2017-Sep-19 13:00N 39°29' W 075°33'0 0.0
2017-Sep-19 12:31N 39°29' W 075°33'0 0.0
2017-Sep-19 12:00N 39°29' W 075°33'0 0.0
2017-Sep-19 11:30N 39°29' W 075°33'0 0.3
2017-Sep-19 11:01N 39°29' W 075°33'0 0.0
2017-Sep-19 10:31N 39°29' W 075°33'0 0.0
2017-Sep-19 10:01N 39°29' W 075°33'0 0.0
2017-Sep-19 09:30N 39°29' W 075°33'0 0.0
2017-Sep-19 09:01N 39°29' W 075°33'0 0.0
2017-Sep-19 08:31N 39°29' W 075°33'0 0.0
2017-Sep-19 08:01N 39°29' W 075°33'0 0.0
2017-Sep-19 07:31N 39°29' W 075°33'0 0.0
2017-Sep-19 07:01N 39°29' W 075°33'0 0.0
2017-Sep-19 06:31N 39°29' W 075°33'0 0.0
2017-Sep-19 06:00N 39°29' W 075°33'0 0.0
2017-Sep-19 05:30N 39°29' W 075°33'0 0.0
2017-Sep-19 05:01N 39°29' W 075°34'0 0.0
2017-Sep-19 04:31N 39°29' W 075°34'0 0.1
2017-Sep-19 04:01N 39°29' W 075°33'0 0.3
2017-Sep-19 03:30N 39°29' W 075°33'0 0.0
2017-Sep-19 03:01N 39°29' W 075°33'0 0.0
2017-Sep-19 02:31N 39°29' W 075°33'0 0.0
2017-Sep-19 02:01N 39°29' W 075°33'0 0.0
2017-Sep-19 01:31N 39°29' W 075°33'0 0.0
2017-Sep-19 01:00N 39°29' W 075°33'0 0.0
2017-Sep-19 00:31N 39°29' W 075°33'0 0.0
2017-Sep-19 00:01N 39°29' W 075°33'0 0.0
2017-Sep-18 23:30N 39°29' W 075°33'0 0.0
2017-Sep-18 23:01N 39°29' W 075°33'0 0.1
2017-Sep-18 22:30N 39°29' W 075°34'0 0.1
2017-Sep-18 22:01N 39°29' W 075°33'0 0.2
2017-Sep-18 21:31N 39°29' W 075°33'0 0.0
2017-Sep-18 21:01N 39°29' W 075°33'0 0.0
2017-Sep-18 20:31N 39°29' W 075°33'0 0.0
2017-Sep-18 20:01N 39°29' W 075°33'0 0.0
2017-Sep-18 19:31N 39°29' W 075°33'0 0.0
2017-Sep-18 19:01N 39°29' W 075°33'0 0.0
2017-Sep-18 18:31N 39°29' W 075°33'0 0.0
2017-Sep-18 18:01N 39°29' W 075°33'0 0.0
2017-Sep-18 17:31N 39°29' W 075°33'0 0.0
2017-Sep-18 17:01N 39°29' W 075°33'0 0.0
2017-Sep-18 16:31N 39°29' W 075°33'0 0.0
2017-Sep-18 16:01N 39°29' W 075°33'0 0.1
2017-Sep-18 15:30N 39°29' W 075°33'0 0.3
2017-Sep-18 15:00N 39°29' W 075°33'0 0.0
2017-Sep-18 14:30N 39°29' W 075°33'0 0.0
2017-Sep-18 14:01N 39°29' W 075°33'0 0.0
2017-Sep-18 13:31N 39°29' W 075°33'0 0.0
2017-Sep-18 13:01N 39°29' W 075°33'0 0.0
2017-Sep-18 12:30N 39°29' W 075°33'0 0.0
2017-Sep-18 12:00N 39°29' W 075°33'0 0.0
2017-Sep-18 11:30N 39°29' W 075°33'0 0.0
2017-Sep-18 11:00N 39°29' W 075°33'0 0.0
2017-Sep-18 10:30N 39°29' W 075°33'0 0.4
2017-Sep-18 10:01N 39°29' W 075°33'0 0.0
2017-Sep-18 09:30N 39°29' W 075°33'0 0.0
2017-Sep-18 09:00N 39°29' W 075°33'0 0.0
2017-Sep-18 08:30N 39°29' W 075°33'0 0.0
2017-Sep-18 08:01N 39°29' W 075°33'0 0.0
2017-Sep-18 07:30N 39°29' W 075°33'0 0.0
2017-Sep-18 07:00N 39°29' W 075°33'0 0.0
2017-Sep-18 06:30N 39°29' W 075°33'0 0.0
2017-Sep-18 06:00N 39°29' W 075°33'0 0.0
2017-Sep-18 05:30N 39°29' W 075°34'0 0.0
2017-Sep-18 05:00N 39°29' W 075°34'0 0.0
2017-Sep-18 04:30N 39°29' W 075°34'0 0.0
2017-Sep-18 04:01N 39°29' W 075°33'0 0.0
2017-Sep-18 03:30N 39°29' W 075°33'0 0.3
2017-Sep-18 03:00N 39°29' W 075°33'0 0.0
2017-Sep-18 02:30N 39°29' W 075°33'0 0.0
2017-Sep-18 02:00N 39°29' W 075°33'0 0.0
2017-Sep-18 01:30N 39°29' W 075°33'0 0.0
2017-Sep-18 01:01N 39°29' W 075°33'0 0.0
2017-Sep-18 00:31N 39°29' W 075°33'0 0.0
2017-Sep-18 00:00N 39°29' W 075°33'0 0.0
2017-Sep-17 23:30N 39°29' W 075°33'0 0.0
2017-Sep-17 23:00N 39°29' W 075°33'0 0.0
2017-Sep-17 22:31N 39°29' W 075°33'0 0.0
2017-Sep-17 22:01N 39°29' W 075°33'0 0.0
2017-Sep-17 21:31N 39°29' W 075°33'0 0.3
2017-Sep-17 21:01N 39°29' W 075°33'0 0.0
2017-Sep-17 20:31N 39°29' W 075°33'0 0.0
2017-Sep-17 20:00N 39°29' W 075°33'0 0.0
2017-Sep-17 19:30N 39°29' W 075°33'0 0.0
2017-Sep-17 19:00N 39°29' W 075°33'0 0.0
2017-Sep-17 18:30N 39°29' W 075°33'0 0.0
2017-Sep-17 18:00N 39°29' W 075°33'0 0.0
2017-Sep-17 17:30N 39°29' W 075°33'0 0.0
2017-Sep-17 17:01N 39°29' W 075°33'0 0.0
2017-Sep-17 16:30N 39°29' W 075°33'0 0.0
2017-Sep-17 16:01N 39°29' W 075°33'0 0.1
2017-Sep-17 15:30N 39°29' W 075°33'0 0.0
2017-Sep-17 15:00N 39°29' W 075°33'0 0.3
2017-Sep-17 14:31N 39°29' W 075°33'0 0.0
2017-Sep-17 14:00N 39°29' W 075°33'0 0.0
2017-Sep-17 13:31N 39°29' W 075°33'0 0.0
2017-Sep-17 13:01N 39°29' W 075°33'0 0.0
2017-Sep-17 12:30N 39°29' W 075°33'0 0.0
2017-Sep-17 12:00N 39°29' W 075°33'0 0.0
2017-Sep-17 11:30N 39°29' W 075°33'0 0.0
2017-Sep-17 11:00N 39°29' W 075°33'0 0.0
2017-Sep-17 10:30N 39°29' W 075°33'0 0.0
2017-Sep-17 10:00N 39°29' W 075°33'0 0.2
2017-Sep-17 09:30N 39°29' W 075°33'0 0.2
2017-Sep-17 09:00N 39°29' W 075°33'0 0.0
2017-Sep-17 08:30N 39°29' W 075°33'0 0.0
2017-Sep-17 08:00N 39°29' W 075°33'0 0.0
2017-Sep-17 07:30N 39°29' W 075°33'0 0.0
2017-Sep-17 07:00N 39°29' W 075°33'0 0.0
2017-Sep-17 06:30N 39°29' W 075°33'0 0.0
2017-Sep-17 06:00N 39°29' W 075°33'0 0.0
2017-Sep-17 05:30N 39°29' W 075°33'0 0.0
2017-Sep-17 05:00N 39°29' W 075°33'0 0.0
2017-Sep-17 04:30N 39°29' W 075°33'0 0.0
2017-Sep-17 04:00N 39°29' W 075°33'0 0.0
2017-Sep-17 03:30N 39°29' W 075°33'0 0.1
2017-Sep-17 03:00N 39°29' W 075°34'0 0.2
2017-Sep-17 02:30N 39°29' W 075°34'0 0.0
2017-Sep-17 02:00N 39°29' W 075°34'0 0.1
2017-Sep-17 01:30N 39°29' W 075°33'0 0.1
2017-Sep-17 01:00N 39°29' W 075°33'0 0.0
2017-Sep-17 00:30N 39°29' W 075°33'0 0.0
2017-Sep-17 00:00N 39°29' W 075°33'0 0.0
2017-Sep-16 23:30N 39°29' W 075°33'0 0.0
2017-Sep-16 23:00N 39°29' W 075°33'0 0.0
2017-Sep-16 22:30N 39°29' W 075°33'0 0.0
2017-Sep-16 22:00N 39°29' W 075°33'0 0.0
2017-Sep-16 21:30N 39°29' W 075°33'0 0.0
2017-Sep-16 21:00N 39°29' W 075°33'0 0.1
2017-Sep-16 20:30N 39°29' W 075°33'0 0.2
2017-Sep-16 20:00N 39°29' W 075°33'0 0.2
2017-Sep-16 19:30N 39°29' W 075°34'0 0.2
2017-Sep-16 19:00N 39°29' W 075°33'0 0.0
2017-Sep-16 18:30N 39°29' W 075°33'0 0.0
2017-Sep-16 18:00N 39°29' W 075°33'0 0.0
2017-Sep-16 17:31N 39°29' W 075°33'0 0.0
2017-Sep-16 17:01N 39°29' W 075°33'0 0.0
2017-Sep-16 16:30N 39°29' W 075°33'0 0.0
2017-Sep-16 16:00N 39°29' W 075°33'0 0.0
2017-Sep-16 15:30N 39°29' W 075°33'0 0.0
2017-Sep-16 15:00N 39°29' W 075°33'0 0.0
2017-Sep-16 14:31N 39°29' W 075°33'0 0.3
2017-Sep-16 14:00N 39°29' W 075°33'0 0.0
2017-Sep-16 13:30N 39°29' W 075°33'0 0.0
2017-Sep-16 13:00N 39°29' W 075°33'0 0.0
2017-Sep-16 12:30N 39°29' W 075°33'0 0.0
2017-Sep-16 12:01N 39°29' W 075°33'0 0.0
2017-Sep-16 11:30N 39°29' W 075°33'0 0.0
2017-Sep-16 11:00N 39°29' W 075°33'0 0.0
2017-Sep-16 10:30N 39°29' W 075°33'0 0.0
2017-Sep-16 10:00N 39°29' W 075°33'0 0.0
2017-Sep-16 09:30N 39°29' W 075°33'0 0.1
2017-Sep-16 09:00N 39°29' W 075°33'0 0.3
2017-Sep-16 08:30N 39°29' W 075°33'0 0.0
2017-Sep-16 08:00N 39°29' W 075°33'0 0.0
2017-Sep-16 07:30N 39°29' W 075°33'0 0.0
2017-Sep-16 07:00N 39°29' W 075°33'0 0.0
2017-Sep-16 06:30N 39°29' W 075°33'0 0.1
2017-Sep-16 06:00N 39°29' W 075°34'0 0.0
2017-Sep-16 05:30N 39°29' W 075°34'0 0.0
2017-Sep-16 05:00N 39°29' W 075°34'0 0.0
2017-Sep-16 04:30N 39°29' W 075°34'0 0.0
2017-Sep-16 04:00N 39°29' W 075°34'0 0.0
2017-Sep-16 03:31N 39°29' W 075°34'0 0.0
2017-Sep-16 03:00N 39°29' W 075°34'0 0.0
2017-Sep-16 02:30N 39°29' W 075°34'0 0.0
2017-Sep-16 02:00N 39°29' W 075°34'0 0.2
2017-Sep-16 01:30N 39°29' W 075°34'0 0.2
2017-Sep-16 01:00N 39°29' W 075°33'0 0.0
2017-Sep-16 00:30N 39°29' W 075°33'0 0.0
2017-Sep-16 00:01N 39°29' W 075°33'0 0.0
2017-Sep-15 23:30N 39°29' W 075°33'0 0.0
2017-Sep-15 23:00N 39°29' W 075°33'0 0.0
2017-Sep-15 22:30N 39°29' W 075°33'0 0.0
2017-Sep-15 22:00N 39°29' W 075°33'0 0.0
2017-Sep-15 21:30N 39°29' W 075°33'0 0.0
2017-Sep-15 21:00N 39°29' W 075°33'0 0.0
2017-Sep-15 20:30N 39°29' W 075°33'0 0.0
2017-Sep-15 20:00N 39°29' W 075°33'0 0.0
2017-Sep-15 19:30N 39°29' W 075°33'0 0.3
2017-Sep-15 19:00N 39°29' W 075°33'0 0.0
2017-Sep-15 18:30N 39°29' W 075°33'0 0.0
2017-Sep-15 18:00N 39°29' W 075°33'0 0.0
2017-Sep-15 17:31N 39°29' W 075°33'0 0.0
2017-Sep-15 17:00N 39°29' W 075°33'0 0.0
2017-Sep-15 16:30N 39°29' W 075°33'0 0.0
2017-Sep-15 16:00N 39°29' W 075°33'0 0.0
2017-Sep-15 15:30N 39°29' W 075°33'0 0.0
2017-Sep-15 15:00N 39°29' W 075°33'0 0.0
2017-Sep-15 14:30N 39°29' W 075°33'0 0.0
2017-Sep-15 14:01N 39°29' W 075°33'0 0.0
2017-Sep-15 13:30N 39°29' W 075°33'0 0.0
2017-Sep-15 13:00N 39°29' W 075°33'0 0.1
2017-Sep-15 12:30N 39°29' W 075°34'0 0.2
2017-Sep-15 12:00N 39°29' W 075°33'0 0.0
2017-Sep-15 11:30N 39°29' W 075°33'0 0.0
2017-Sep-15 11:00N 39°29' W 075°33'0 0.0
2017-Sep-15 10:30N 39°29' W 075°33'0 0.0
2017-Sep-15 10:00N 39°29' W 075°33'0 0.0
2017-Sep-15 09:30N 39°29' W 075°33'0 0.0
2017-Sep-15 09:00N 39°29' W 075°33'0 0.1
2017-Sep-15 08:30N 39°29' W 075°34'0 0.0
2017-Sep-15 08:00N 39°29' W 075°33'0 0.2
2017-Sep-15 07:30N 39°29' W 075°33'0 0.1
2017-Sep-15 07:00N 39°29' W 075°33'0 0.4
2017-Sep-15 06:30N 39°29' W 075°33'0 0.0
2017-Sep-15 06:00N 39°29' W 075°33'0 0.0
2017-Sep-15 05:30N 39°29' W 075°33'0 0.0
2017-Sep-15 05:00N 39°29' W 075°33'0 0.0
2017-Sep-15 04:30N 39°29' W 075°33'0 0.0
2017-Sep-15 04:00N 39°29' W 075°33'0 0.0
2017-Sep-15 03:30N 39°29' W 075°33'0 0.0
2017-Sep-15 03:01N 39°29' W 075°33'0 0.0
2017-Sep-15 02:30N 39°29' W 075°33'0 0.0
2017-Sep-15 02:00N 39°29' W 075°33'0 0.0
2017-Sep-15 01:31N 39°29' W 075°33'0 0.0
2017-Sep-15 01:01N 39°29' W 075°33'0 0.0
2017-Sep-15 00:31N 39°29' W 075°33'0 0.3
2017-Sep-15 00:00N 39°29' W 075°33'0 0.0
2017-Sep-14 23:31N 39°29' W 075°33'0 0.0
2017-Sep-14 23:00N 39°29' W 075°33'0 0.0
2017-Sep-14 22:30N 39°29' W 075°33'0 0.0
2017-Sep-14 22:00N 39°29' W 075°33'0 0.0
2017-Sep-14 21:31N 39°29' W 075°33'0 0.0
2017-Sep-14 21:01N 39°29' W 075°33'0 0.0
2017-Sep-14 20:30N 39°29' W 075°33'0 0.0
2017-Sep-14 20:00N 39°29' W 075°33'0 0.0
2017-Sep-14 19:30N 39°29' W 075°33'0 0.0
2017-Sep-14 19:00N 39°29' W 075°33'0 0.1
2017-Sep-14 18:30N 39°29' W 075°33'0 0.4
2017-Sep-14 18:00N 39°29' W 075°34'0 0.0
2017-Sep-14 17:31N 39°29' W 075°33'0 0.1
2017-Sep-14 17:01N 39°29' W 075°34'0 0.0
2017-Sep-14 16:30N 39°29' W 075°34'0 0.0
2017-Sep-14 16:00N 39°29' W 075°34'0 0.0
2017-Sep-14 15:30N 39°29' W 075°34'0 0.0
2017-Sep-14 15:00N 39°29' W 075°34'0 0.0
2017-Sep-14 14:31N 39°29' W 075°34'0 0.0
2017-Sep-14 14:00N 39°29' W 075°34'0 0.0
2017-Sep-14 13:31N 39°29' W 075°34'0 0.1
2017-Sep-14 13:00N 39°29' W 075°34'0 0.0
2017-Sep-14 12:30N 39°29' W 075°33'0 0.1
2017-Sep-14 12:00N 39°29' W 075°34'0 0.2
2017-Sep-14 11:30N 39°29' W 075°33'0 0.1
2017-Sep-14 11:00N 39°29' W 075°33'0 0.0
2017-Sep-14 10:30N 39°29' W 075°33'0 0.0
2017-Sep-14 10:00N 39°29' W 075°33'0 0.0
2017-Sep-14 09:30N 39°29' W 075°33'0 0.0
2017-Sep-14 09:00N 39°29' W 075°33'0 0.0
2017-Sep-14 08:30N 39°29' W 075°33'0 0.0
2017-Sep-14 08:00N 39°29' W 075°33'0 0.0
2017-Sep-14 07:31N 39°29' W 075°33'0 0.0
2017-Sep-14 07:00N 39°29' W 075°33'0 0.3
2017-Sep-14 06:30N 39°29' W 075°33'0 0.1
2017-Sep-14 06:00N 39°29' W 075°33'0 0.0
2017-Sep-14 05:30N 39°29' W 075°33'0 0.0
2017-Sep-14 05:00N 39°29' W 075°33'0 0.0
2017-Sep-14 04:30N 39°29' W 075°33'0 0.0
2017-Sep-14 04:00N 39°29' W 075°33'0 0.0
2017-Sep-14 03:30N 39°29' W 075°33'0 0.0
2017-Sep-14 03:00N 39°29' W 075°33'0 0.0
2017-Sep-14 02:30N 39°29' W 075°33'0 0.0
2017-Sep-14 02:00N 39°29' W 075°33'0 0.0
2017-Sep-14 01:31N 39°29' W 075°33'0 0.0
2017-Sep-14 01:00N 39°29' W 075°33'0 0.0
2017-Sep-14 00:30N 39°29' W 075°33'3 5.2
2017-Sep-14 00:00N 39°32' W 075°33'4 7.0
2017-Sep-13 23:30N 39°34' W 075°30'0 0.7
2017-Sep-13 23:00N 39°34' W 075°29'2 4.4
2017-Sep-13 22:30N 39°33' W 075°32'4 8.2
2017-Sep-13 22:00N 39°29' W 075°33'0 0.1
2017-Sep-13 21:30N 39°29' W 075°33'0 0.0
2017-Sep-13 21:00N 39°29' W 075°33'0 0.0
2017-Sep-13 20:30N 39°29' W 075°33'0 0.0
2017-Sep-13 20:00N 39°29' W 075°33'0 0.0
2017-Sep-13 19:30N 39°29' W 075°33'0 0.0
2017-Sep-13 19:00N 39°29' W 075°33'0 0.0
2017-Sep-13 18:30N 39°29' W 075°33'0 0.0
2017-Sep-13 18:00N 39°29' W 075°33'0 0.2
2017-Sep-13 17:30N 39°29' W 075°33'0 0.0
2017-Sep-13 17:00N 39°29' W 075°33'0 0.2
2017-Sep-13 16:30N 39°29' W 075°34'0 0.1
2017-Sep-13 16:00N 39°29' W 075°34'0 0.2
2017-Sep-13 15:30N 39°29' W 075°33'0 0.0
2017-Sep-13 15:01N 39°29' W 075°33'0 0.0
2017-Sep-13 14:31N 39°29' W 075°33'0 0.0
2017-Sep-13 14:00N 39°29' W 075°33'0 0.0
2017-Sep-13 13:30N 39°29' W 075°33'0 0.0
2017-Sep-13 13:01N 39°29' W 075°34'0 0.0
2017-Sep-13 12:30N 39°29' W 075°34'0 0.0
2017-Sep-13 12:00N 39°29' W 075°34'0 0.0
2017-Sep-13 11:30N 39°29' W 075°34'0 0.0
2017-Sep-13 11:00N 39°29' W 075°34'0 0.2
2017-Sep-13 10:30N 39°29' W 075°33'0 0.1
2017-Sep-13 10:00N 39°29' W 075°33'0 0.0
2017-Sep-13 09:31N 39°29' W 075°33'0 0.0
2017-Sep-13 09:00N 39°29' W 075°33'0 0.0
2017-Sep-13 08:30N 39°29' W 075°33'0 0.0
2017-Sep-13 08:00N 39°29' W 075°33'0 0.0
2017-Sep-13 07:31N 39°29' W 075°33'0 0.0
2017-Sep-13 07:00N 39°29' W 075°33'0 0.0
2017-Sep-13 06:30N 39°29' W 075°33'0 0.0
2017-Sep-13 06:01N 39°29' W 075°33'0 0.1
2017-Sep-13 05:30N 39°29' W 075°33'0 0.7
2017-Sep-13 05:00N 39°29' W 075°33'0 0.0
2017-Sep-13 04:30N 39°29' W 075°33'0 0.0
2017-Sep-13 04:00N 39°29' W 075°33'0 0.0
2017-Sep-13 03:30N 39°29' W 075°33'0 0.0
2017-Sep-13 03:00N 39°29' W 075°33'0 0.0
2017-Sep-13 02:30N 39°29' W 075°33'0 0.0
2017-Sep-13 02:00N 39°29' W 075°33'0 0.8
2017-Sep-13 01:31N 39°29' W 075°34'0 0.1
2017-Sep-13 01:00N 39°29' W 075°34'0 0.0
2017-Sep-13 00:30N 39°29' W 075°34'0 0.0
2017-Sep-13 00:00N 39°29' W 075°34'0 0.0
2017-Sep-12 23:30N 39°29' W 075°34'0 0.1
2017-Sep-12 23:00N 39°29' W 075°33'0 0.1
2017-Sep-12 22:30N 39°29' W 075°34'0 0.1
2017-Sep-12 22:00N 39°29' W 075°34'0 0.2
2017-Sep-12 21:30N 39°29' W 075°33'0 0.0
2017-Sep-12 21:01N 39°29' W 075°33'0 0.0
2017-Sep-12 20:30N 39°29' W 075°33'0 0.0
2017-Sep-12 20:00N 39°29' W 075°33'0 0.0
2017-Sep-12 19:30N 39°29' W 075°33'0 0.0
2017-Sep-12 19:00N 39°29' W 075°33'0 0.0
2017-Sep-12 18:30N 39°29' W 075°33'0 0.0
2017-Sep-12 18:00N 39°29' W 075°33'0 0.0
2017-Sep-12 17:30N 39°29' W 075°33'0 0.1
2017-Sep-12 17:00N 39°29' W 075°33'0 0.1
2017-Sep-12 16:30N 39°29' W 075°34'0 0.3
2017-Sep-12 16:00N 39°29' W 075°33'0 0.0
2017-Sep-12 15:30N 39°29' W 075°33'0 0.0
2017-Sep-12 15:00N 39°29' W 075°33'0 0.0
2017-Sep-12 14:30N 39°29' W 075°33'0 0.0
2017-Sep-12 14:00N 39°29' W 075°33'0 0.0
2017-Sep-12 13:30N 39°29' W 075°33'0 0.0
2017-Sep-12 13:01N 39°29' W 075°33'0 0.0
2017-Sep-12 12:30N 39°29' W 075°33'0 0.0
2017-Sep-12 09:16N 39°29' W 075°34'0 0.2
2017-Sep-12 09:00N 39°29' W 075°34'0 0.3
2017-Sep-12 08:30N 39°29' W 075°33'0 0.0
2017-Sep-12 08:01N 39°29' W 075°33'0 0.0
2017-Sep-12 07:30N 39°29' W 075°33'0 0.0
2017-Sep-12 07:00N 39°29' W 075°33'0 0.0
2017-Sep-12 06:31N 39°29' W 075°33'0 0.0
2017-Sep-12 06:00N 39°29' W 075°33'0 0.0
2017-Sep-12 05:31N 39°29' W 075°33'0 0.1
2017-Sep-12 05:01N 39°29' W 075°33'0 0.3
2017-Sep-12 04:30N 39°29' W 075°33'0 0.1
2017-Sep-12 04:00N 39°29' W 075°33'0 0.0
2017-Sep-12 03:30N 39°29' W 075°33'0 0.0
2017-Sep-12 03:00N 39°29' W 075°33'0 0.0
2017-Sep-12 02:30N 39°29' W 075°33'0 0.0
2017-Sep-12 02:01N 39°29' W 075°33'0 0.0
2017-Sep-12 01:30N 39°29' W 075°33'0 0.0
2017-Sep-12 01:01N 39°29' W 075°33'0 0.0
2017-Sep-12 00:30N 39°29' W 075°33'0 0.0
2017-Sep-12 00:00N 39°29' W 075°33'0 0.0
2017-Sep-11 23:30N 39°29' W 075°33'0 0.0
2017-Sep-11 23:00N 39°29' W 075°33'0 0.0
2017-Sep-11 22:30N 39°29' W 075°33'1 2.7
2017-Sep-11 22:00N 39°31' W 075°33'4 8.1
2017-Sep-11 21:30N 39°34' W 075°31'1 1.2
2017-Sep-11 21:00N 39°34' W 075°30'3 6.7
2017-Sep-11 20:30N 39°32' W 075°33'2 4.7
2017-Sep-11 20:00N 39°29' W 075°33'0 0.1
2017-Sep-11 19:30N 39°29' W 075°33'0 0.0
2017-Sep-11 19:00N 39°29' W 075°33'0 0.0
2017-Sep-11 18:30N 39°29' W 075°33'0 0.0
2017-Sep-11 18:00N 39°29' W 075°33'0 0.1
2017-Sep-11 17:30N 39°29' W 075°33'0 0.0
2017-Sep-11 17:00N 39°29' W 075°33'0 0.0
2017-Sep-11 16:30N 39°29' W 075°33'0 0.0
2017-Sep-11 16:01N 39°29' W 075°33'0 0.3
2017-Sep-11 15:31N 39°29' W 075°33'0 0.0
2017-Sep-11 15:01N 39°29' W 075°33'0 0.0
2017-Sep-11 14:30N 39°29' W 075°33'0 0.0
2017-Sep-11 14:00N 39°29' W 075°33'0 0.0
2017-Sep-11 13:31N 39°29' W 075°33'0 0.0
2017-Sep-11 13:00N 39°29' W 075°33'0 0.0
2017-Sep-11 12:30N 39°29' W 075°33'0 0.0
2017-Sep-11 12:01N 39°29' W 075°33'0 0.0
2017-Sep-11 11:30N 39°29' W 075°33'0 0.0
2017-Sep-11 11:00N 39°29' W 075°33'0 0.0
2017-Sep-11 10:30N 39°29' W 075°33'0 0.0
2017-Sep-11 10:00N 39°29' W 075°33'0 0.0
2017-Sep-11 09:30N 39°29' W 075°33'0 0.0
2017-Sep-11 09:00N 39°29' W 075°33'0 0.1
2017-Sep-11 08:30N 39°29' W 075°34'0 0.2
2017-Sep-11 08:00N 39°29' W 075°33'0 0.0
2017-Sep-11 07:30N 39°29' W 075°33'0 0.0
2017-Sep-11 07:00N 39°29' W 075°33'0 0.0
2017-Sep-11 06:30N 39°29' W 075°33'0 0.0
2017-Sep-11 06:00N 39°29' W 075°33'0 0.1
2017-Sep-11 05:30N 39°29' W 075°33'0 0.0
2017-Sep-11 05:00N 39°29' W 075°33'  
Track history (hours):
 
Tides and Currents Weather Stations Pressure Air Temp Water Temp Dewpoint Dewpoint Depression Visibility Wind Speed Wind Dir Waves Ship Positions

Sea Coast

Owner: Dann Marine Towing, LC, Chesapeake City, MD. More information available from US FCC via Universal Licensing System and Coast Guard Vessel Documentation Center.

Last reported at 2017-Sep-21 04:31 UTC. Time now 2017-Sep-21 05:00 UTC.
Position N 39°29' W 075°33'.

; draft 2.7 m.

Type: Tug. MMSI: 367098280.

Date/timePositionNaut miles runAvg speedWind from/ knotsBaromVisibWave heightAir tempDewpointWater temp
2017-Sep-21 04:31N 39°29' W 075°33'0 0.0
2017-Sep-21 04:01N 39°29' W 075°33'0 0.0
2017-Sep-21 03:31N 39°29' W 075°33'0 0.0
2017-Sep-21 03:00N 39°29' W 075°33'0 0.0
2017-Sep-21 02:31N 39°29' W 075°33'0 0.0
2017-Sep-21 02:00N 39°29' W 075°33'0 0.0
2017-Sep-21 01:30N 39°29' W 075°33'0 0.0
2017-Sep-21 01:00N 39°29' W 075°33'0 0.0
2017-Sep-21 00:30N 39°29' W 075°33'0 0.3
2017-Sep-21 00:01N 39°29' W 075°34'0 0.1
2017-Sep-20 23:30N 39°29' W 075°33'0 0.0
2017-Sep-20 23:01N 39°29' W 075°33'0 0.0
2017-Sep-20 22:30N 39°29' W 075°33'0 0.0
2017-Sep-20 22:01N 39°29' W 075°33'0 0.0
2017-Sep-20 21:30N 39°29' W 075°33'0 0.2
2017-Sep-20 21:01N 39°29' W 075°33'4 8.5
2017-Sep-20 20:31N 39°33' W 075°32'2 4.7
2017-Sep-20 20:01N 39°34' W 075°29'0 0.5
2017-Sep-20 19:31N 39°35' W 075°29'0 0.6
2017-Sep-20 19:00N 39°34' W 075°29'0 0.5
2017-Sep-20 18:30N 39°35' W 075°29'0 0.5
2017-Sep-20 18:01N 39°34' W 075°29'0 0.0
2017-Sep-20 17:31N 39°34' W 075°29'0 0.0
2017-Sep-20 17:00N 39°34' W 075°29'0 0.0
2017-Sep-20 16:31N 39°34' W 075°29'0 0.0
2017-Sep-20 16:01N 39°34' W 075°29'0 0.0
2017-Sep-20 15:30N 39°34' W 075°29'0 0.0
2017-Sep-20 15:01N 39°34' W 075°29'0 0.0
2017-Sep-20 14:00N 39°34' W 075°29'0 0.0
2017-Sep-20 13:30N 39°34' W 075°29'0 0.0
2017-Sep-20 13:00N 39°34' W 075°29'0 0.0
2017-Sep-20 12:30N 39°34' W 075°29'0 0.0
2017-Sep-20 12:00N 39°34' W 075°29'0 0.0
2017-Sep-20 11:30N 39°34' W 075°29'0 0.0
2017-Sep-20 11:00N 39°34' W 075°29'0 0.0
2017-Sep-20 10:31N 39°34' W 075°29'0 0.0
2017-Sep-20 10:01N 39°34' W 075°29'0 0.0
2017-Sep-20 09:30N 39°34' W 075°29'0 0.0
2017-Sep-20 09:01N 39°34' W 075°29'0 0.0
2017-Sep-20 08:30N 39°34' W 075°29'0 0.0
2017-Sep-20 08:01N 39°34' W 075°29'0 0.0
2017-Sep-20 07:31N 39°34' W 075°29'0 0.0
2017-Sep-20 07:01N 39°34' W 075°29'0 0.0
2017-Sep-20 06:30N 39°34' W 075°29'0 0.0
2017-Sep-20 06:00N 39°34' W 075°29'0 0.0
2017-Sep-20 05:30N 39°34' W 075°29'0 0.0
2017-Sep-20 05:01N 39°34' W 075°29'0 0.2
2017-Sep-20 04:30N 39°34' W 075°29'0 0.2
2017-Sep-20 04:01N 39°34' W 075°29'0 0.0
2017-Sep-20 03:30N 39°34' W 075°29'3 6.5
2017-Sep-20 03:01N 39°32' W 075°32'510.7
2017-Sep-20 02:31N 39°27' W 075°33'611.7
2017-Sep-20 02:01N 39°23' W 075°28'4 8.9
2017-Sep-20 01:31N 39°19' W 075°24'1 1.4
2017-Sep-20 01:00N 39°20' W 075°25'1 1.6
2017-Sep-20 00:30N 39°20' W 075°26'1 1.8
2017-Sep-20 00:00N 39°21' W 075°27'1 1.1
2017-Sep-19 23:31N 39°22' W 075°27'1 2.2
2017-Sep-19 23:01N 39°21' W 075°26'1 2.4
2017-Sep-19 22:31N 39°20' W 075°25'1 2.4
2017-Sep-19 22:00N 39°19' W 075°24'1 1.9
2017-Sep-19 21:30N 39°18' W 075°23'1 1.2
2017-Sep-19 21:00N 39°18' W 075°23'1 1.7
2017-Sep-19 20:31N 39°17' W 075°22'1 1.4
2017-Sep-19 20:00N 39°17' W 075°21'0 0.8
2017-Sep-19 19:31N 39°16' W 075°21'0 0.4
2017-Sep-19 19:00N 39°16' W 075°21'0 0.5
2017-Sep-19 18:30N 39°16' W 075°21'611.4
2017-Sep-19 18:01N 39°20' W 075°25'510.6
2017-Sep-19 17:30N 39°24' W 075°30'5 9.8
2017-Sep-19 17:01N 39°28' W 075°34'1 1.8
2017-Sep-19 16:30N 39°29' W 075°33'0 0.1
2017-Sep-19 16:01N 39°29' W 075°33'0 0.3
2017-Sep-19 15:30N 39°29' W 075°33'0 0.0
2017-Sep-19 15:01N 39°29' W 075°33'0 0.0
2017-Sep-19 14:31N 39°29' W 075°33'0 0.0
2017-Sep-19 14:01N 39°29' W 075°33'0 0.0
2017-Sep-19 13:30N 39°29' W 075°33'0 0.0
2017-Sep-19 13:00N 39°29' W 075°33'0 0.0
2017-Sep-19 12:31N 39°29' W 075°33'0 0.0
2017-Sep-19 12:00N 39°29' W 075°33'0 0.0
2017-Sep-19 11:30N 39°29' W 075°33'0 0.3
2017-Sep-19 11:01N 39°29' W 075°33'0 0.0
2017-Sep-19 10:31N 39°29' W 075°33'0 0.0
2017-Sep-19 10:01N 39°29' W 075°33'0 0.0
2017-Sep-19 09:30N 39°29' W 075°33'0 0.0
2017-Sep-19 09:01N 39°29' W 075°33'0 0.0
2017-Sep-19 08:31N 39°29' W 075°33'0 0.0
2017-Sep-19 08:01N 39°29' W 075°33'0 0.0
2017-Sep-19 07:31N 39°29' W 075°33'0 0.0
2017-Sep-19 07:01N 39°29' W 075°33'0 0.0
2017-Sep-19 06:31N 39°29' W 075°33'0 0.0
2017-Sep-19 06:00N 39°29' W 075°33'0 0.0
2017-Sep-19 05:30N 39°29' W 075°33'0 0.0
2017-Sep-19 05:01N 39°29' W 075°34'0 0.0
2017-Sep-19 04:31N 39°29' W 075°34'0 0.1
2017-Sep-19 04:01N 39°29' W 075°33'0 0.3
2017-Sep-19 03:30N 39°29' W 075°33'0 0.0
2017-Sep-19 03:01N 39°29' W 075°33'0 0.0
2017-Sep-19 02:31N 39°29' W 075°33'0 0.0
2017-Sep-19 02:01N 39°29' W 075°33'0 0.0
2017-Sep-19 01:31N 39°29' W 075°33'0 0.0
2017-Sep-19 01:00N 39°29' W 075°33'0 0.0
2017-Sep-19 00:31N 39°29' W 075°33'0 0.0
2017-Sep-19 00:01N 39°29' W 075°33'0 0.0
2017-Sep-18 23:30N 39°29' W 075°33'0 0.0
2017-Sep-18 23:01N 39°29' W 075°33'0 0.1
2017-Sep-18 22:30N 39°29' W 075°34'0 0.1
2017-Sep-18 22:01N 39°29' W 075°33'0 0.2
2017-Sep-18 21:31N 39°29' W 075°33'0 0.0
2017-Sep-18 21:01N 39°29' W 075°33'0 0.0
2017-Sep-18 20:31N 39°29' W 075°33'0 0.0
2017-Sep-18 20:01N 39°29' W 075°33'0 0.0
2017-Sep-18 19:31N 39°29' W 075°33'0 0.0
2017-Sep-18 19:01N 39°29' W 075°33'0 0.0
2017-Sep-18 18:31N 39°29' W 075°33'0 0.0
2017-Sep-18 18:01N 39°29' W 075°33'0 0.0
2017-Sep-18 17:31N 39°29' W 075°33'0 0.0
2017-Sep-18 17:01N 39°29' W 075°33'0 0.0
2017-Sep-18 16:31N 39°29' W 075°33'0 0.0
2017-Sep-18 16:01N 39°29' W 075°33'0 0.1
2017-Sep-18 15:30N 39°29' W 075°33'0 0.3
2017-Sep-18 15:00N 39°29' W 075°33'0 0.0
2017-Sep-18 14:30N 39°29' W 075°33'0 0.0
2017-Sep-18 14:01N 39°29' W 075°33'0 0.0
2017-Sep-18 13:31N 39°29' W 075°33'0 0.0
2017-Sep-18 13:01N 39°29' W 075°33'0 0.0
2017-Sep-18 12:30N 39°29' W 075°33'0 0.0
2017-Sep-18 12:00N 39°29' W 075°33'0 0.0
2017-Sep-18 11:30N 39°29' W 075°33'0 0.0
2017-Sep-18 11:00N 39°29' W 075°33'0 0.0
2017-Sep-18 10:30N 39°29' W 075°33'0 0.4
2017-Sep-18 10:01N 39°29' W 075°33'0 0.0
2017-Sep-18 09:30N 39°29' W 075°33'0 0.0
2017-Sep-18 09:00N 39°29' W 075°33'0 0.0
2017-Sep-18 08:30N 39°29' W 075°33'0 0.0
2017-Sep-18 08:01N 39°29' W 075°33'0 0.0
2017-Sep-18 07:30N 39°29' W 075°33'0 0.0
2017-Sep-18 07:00N 39°29' W 075°33'0 0.0
2017-Sep-18 06:30N 39°29' W 075°33'0 0.0
2017-Sep-18 06:00N 39°29' W 075°33'0 0.0
2017-Sep-18 05:30N 39°29' W 075°34'0 0.0
2017-Sep-18 05:00N 39°29' W 075°34'0 0.0
2017-Sep-18 04:30N 39°29' W 075°34'0 0.0
2017-Sep-18 04:01N 39°29' W 075°33'0 0.0
2017-Sep-18 03:30N 39°29' W 075°33'0 0.3
2017-Sep-18 03:00N 39°29' W 075°33'0 0.0
2017-Sep-18 02:30N 39°29' W 075°33'0 0.0
2017-Sep-18 02:00N 39°29' W 075°33'0 0.0
2017-Sep-18 01:30N 39°29' W 075°33'0 0.0
2017-Sep-18 01:01N 39°29' W 075°33'0 0.0
2017-Sep-18 00:31N 39°29' W 075°33'0 0.0
2017-Sep-18 00:00N 39°29' W 075°33'0 0.0
2017-Sep-17 23:30N 39°29' W 075°33'0 0.0
2017-Sep-17 23:00N 39°29' W 075°33'0 0.0
2017-Sep-17 22:31N 39°29' W 075°33'0 0.0
2017-Sep-17 22:01N 39°29' W 075°33'0 0.0
2017-Sep-17 21:31N 39°29' W 075°33'0 0.3
2017-Sep-17 21:01N 39°29' W 075°33'0 0.0
2017-Sep-17 20:31N 39°29' W 075°33'0 0.0
2017-Sep-17 20:00N 39°29' W 075°33'0 0.0
2017-Sep-17 19:30N 39°29' W 075°33'0 0.0
2017-Sep-17 19:00N 39°29' W 075°33'0 0.0
2017-Sep-17 18:30N 39°29' W 075°33'0 0.0
2017-Sep-17 18:00N 39°29' W 075°33'0 0.0
2017-Sep-17 17:30N 39°29' W 075°33'0 0.0
2017-Sep-17 17:01N 39°29' W 075°33'0 0.0
2017-Sep-17 16:30N 39°29' W 075°33'0 0.0
2017-Sep-17 16:01N 39°29' W 075°33'0 0.1
2017-Sep-17 15:30N 39°29' W 075°33'0 0.0
2017-Sep-17 15:00N 39°29' W 075°33'0 0.3
2017-Sep-17 14:31N 39°29' W 075°33'0 0.0
2017-Sep-17 14:00N 39°29' W 075°33'0 0.0
2017-Sep-17 13:31N 39°29' W 075°33'0 0.0
2017-Sep-17 13:01N 39°29' W 075°33'0 0.0
2017-Sep-17 12:30N 39°29' W 075°33'0 0.0
2017-Sep-17 12:00N 39°29' W 075°33'0 0.0
2017-Sep-17 11:30N 39°29' W 075°33'0 0.0
2017-Sep-17 11:00N 39°29' W 075°33'0 0.0
2017-Sep-17 10:30N 39°29' W 075°33'0 0.0
2017-Sep-17 10:00N 39°29' W 075°33'0 0.2
2017-Sep-17 09:30N 39°29' W 075°33'0 0.2
2017-Sep-17 09:00N 39°29' W 075°33'0 0.0
2017-Sep-17 08:30N 39°29' W 075°33'0 0.0
2017-Sep-17 08:00N 39°29' W 075°33'0 0.0
2017-Sep-17 07:30N 39°29' W 075°33'0 0.0
2017-Sep-17 07:00N 39°29' W 075°33'0 0.0
2017-Sep-17 06:30N 39°29' W 075°33'0 0.0
2017-Sep-17 06:00N 39°29' W 075°33'0 0.0
2017-Sep-17 05:30N 39°29' W 075°33'0 0.0
2017-Sep-17 05:00N 39°29' W 075°33'0 0.0
2017-Sep-17 04:30N 39°29' W 075°33'0 0.0
2017-Sep-17 04:00N 39°29' W 075°33'0 0.0
2017-Sep-17 03:30N 39°29' W 075°33'0 0.1
2017-Sep-17 03:00N 39°29' W 075°34'0 0.2
2017-Sep-17 02:30N 39°29' W 075°34'0 0.0
2017-Sep-17 02:00N 39°29' W 075°34'0 0.1
2017-Sep-17 01:30N 39°29' W 075°33'0 0.1
2017-Sep-17 01:00N 39°29' W 075°33'0 0.0
2017-Sep-17 00:30N 39°29' W 075°33'0 0.0
2017-Sep-17 00:00N 39°29' W 075°33'0 0.0
2017-Sep-16 23:30N 39°29' W 075°33'0 0.0
2017-Sep-16 23:00N 39°29' W 075°33'0 0.0
2017-Sep-16 22:30N 39°29' W 075°33'0 0.0
2017-Sep-16 22:00N 39°29' W 075°33'0 0.0
2017-Sep-16 21:30N 39°29' W 075°33'0 0.0
2017-Sep-16 21:00N 39°29' W 075°33'0 0.1
2017-Sep-16 20:30N 39°29' W 075°33'0 0.2
2017-Sep-16 20:00N 39°29' W 075°33'0 0.2
2017-Sep-16 19:30N 39°29' W 075°34'0 0.2
2017-Sep-16 19:00N 39°29' W 075°33'0 0.0
2017-Sep-16 18:30N 39°29' W 075°33'0 0.0
2017-Sep-16 18:00N 39°29' W 075°33'0 0.0
2017-Sep-16 17:31N 39°29' W 075°33'0 0.0
2017-Sep-16 17:01N 39°29' W 075°33'0 0.0
2017-Sep-16 16:30N 39°29' W 075°33'0 0.0
2017-Sep-16 16:00N 39°29' W 075°33'0 0.0
2017-Sep-16 15:30N 39°29' W 075°33'0 0.0
2017-Sep-16 15:00N 39°29' W 075°33'0 0.0
2017-Sep-16 14:31N 39°29' W 075°33'0 0.3
2017-Sep-16 14:00N 39°29' W 075°33'0 0.0
2017-Sep-16 13:30N 39°29' W 075°33'0 0.0
2017-Sep-16 13:00N 39°29' W 075°33'0 0.0
2017-Sep-16 12:30N 39°29' W 075°33'0 0.0
2017-Sep-16 12:01N 39°29' W 075°33'0 0.0
2017-Sep-16 11:30N 39°29' W 075°33'0 0.0
2017-Sep-16 11:00N 39°29' W 075°33'0 0.0
2017-Sep-16 10:30N 39°29' W 075°33'0 0.0
2017-Sep-16 10:00N 39°29' W 075°33'0 0.0
2017-Sep-16 09:30N 39°29' W 075°33'0 0.1
2017-Sep-16 09:00N 39°29' W 075°33'0 0.3
2017-Sep-16 08:30N 39°29' W 075°33'0 0.0
2017-Sep-16 08:00N 39°29' W 075°33'0 0.0
2017-Sep-16 07:30N 39°29' W 075°33'0 0.0
2017-Sep-16 07:00N 39°29' W 075°33'0 0.0
2017-Sep-16 06:30N 39°29' W 075°33'0 0.1
2017-Sep-16 06:00N 39°29' W 075°34'0 0.0
2017-Sep-16 05:30N 39°29' W 075°34'0 0.0
2017-Sep-16 05:00N 39°29' W 075°34'0 0.0
2017-Sep-16 04:30N 39°29' W 075°34'0 0.0
2017-Sep-16 04:00N 39°29' W 075°34'0 0.0
2017-Sep-16 03:31N 39°29' W 075°34'0 0.0
2017-Sep-16 03:00N 39°29' W 075°34'0 0.0
2017-Sep-16 02:30N 39°29' W 075°34'0 0.0
2017-Sep-16 02:00N 39°29' W 075°34'0 0.2
2017-Sep-16 01:30N 39°29' W 075°34'0 0.2
2017-Sep-16 01:00N 39°29' W 075°33'0 0.0
2017-Sep-16 00:30N 39°29' W 075°33'0 0.0
2017-Sep-16 00:01N 39°29' W 075°33'0 0.0
2017-Sep-15 23:30N 39°29' W 075°33'0 0.0
2017-Sep-15 23:00N 39°29' W 075°33'0 0.0
2017-Sep-15 22:30N 39°29' W 075°33'0 0.0
2017-Sep-15 22:00N 39°29' W 075°33'0 0.0
2017-Sep-15 21:30N 39°29' W 075°33'0 0.0
2017-Sep-15 21:00N 39°29' W 075°33'0 0.0
2017-Sep-15 20:30N 39°29' W 075°33'0 0.0
2017-Sep-15 20:00N 39°29' W 075°33'0 0.0
2017-Sep-15 19:30N 39°29' W 075°33'0 0.3
2017-Sep-15 19:00N 39°29' W 075°33'0 0.0
2017-Sep-15 18:30N 39°29' W 075°33'0 0.0
2017-Sep-15 18:00N 39°29' W 075°33'0 0.0
2017-Sep-15 17:31N 39°29' W 075°33'0 0.0
2017-Sep-15 17:00N 39°29' W 075°33'0 0.0
2017-Sep-15 16:30N 39°29' W 075°33'0 0.0
2017-Sep-15 16:00N 39°29' W 075°33'0 0.0
2017-Sep-15 15:30N 39°29' W 075°33'0 0.0
2017-Sep-15 15:00N 39°29' W 075°33'0 0.0
2017-Sep-15 14:30N 39°29' W 075°33'0 0.0
2017-Sep-15 14:01N 39°29' W 075°33'0 0.0
2017-Sep-15 13:30N 39°29' W 075°33'0 0.0
2017-Sep-15 13:00N 39°29' W 075°33'0 0.1
2017-Sep-15 12:30N 39°29' W 075°34'0 0.2
2017-Sep-15 12:00N 39°29' W 075°33'0 0.0
2017-Sep-15 11:30N 39°29' W 075°33'0 0.0
2017-Sep-15 11:00N 39°29' W 075°33'0 0.0
2017-Sep-15 10:30N 39°29' W 075°33'0 0.0
2017-Sep-15 10:00N 39°29' W 075°33'0 0.0
2017-Sep-15 09:30N 39°29' W 075°33'0 0.0
2017-Sep-15 09:00N 39°29' W 075°33'0 0.1
2017-Sep-15 08:30N 39°29' W 075°34'0 0.0
2017-Sep-15 08:00N 39°29' W 075°33'0 0.2
2017-Sep-15 07:30N 39°29' W 075°33'0 0.1
2017-Sep-15 07:00N 39°29' W 075°33'0 0.4
2017-Sep-15 06:30N 39°29' W 075°33'0 0.0
2017-Sep-15 06:00N 39°29' W 075°33'0 0.0
2017-Sep-15 05:30N 39°29' W 075°33'0 0.0
2017-Sep-15 05:00N 39°29' W 075°33'0 0.0
2017-Sep-15 04:30N 39°29' W 075°33'0 0.0
2017-Sep-15 04:00N 39°29' W 075°33'0 0.0
2017-Sep-15 03:30N 39°29' W 075°33'0 0.0
2017-Sep-15 03:01N 39°29' W 075°33'0 0.0
2017-Sep-15 02:30N 39°29' W 075°33'0 0.0
2017-Sep-15 02:00N 39°29' W 075°33'0 0.0
2017-Sep-15 01:31N 39°29' W 075°33'0 0.0
2017-Sep-15 01:01N 39°29' W 075°33'0 0.0
2017-Sep-15 00:31N 39°29' W 075°33'0 0.3
2017-Sep-15 00:00N 39°29' W 075°33'0 0.0
2017-Sep-14 23:31N 39°29' W 075°33'0 0.0
2017-Sep-14 23:00N 39°29' W 075°33'0 0.0
2017-Sep-14 22:30N 39°29' W 075°33'0 0.0
2017-Sep-14 22:00N 39°29' W 075°33'0 0.0
2017-Sep-14 21:31N 39°29' W 075°33'0 0.0
2017-Sep-14 21:01N 39°29' W 075°33'0 0.0
2017-Sep-14 20:30N 39°29' W 075°33'0 0.0
2017-Sep-14 20:00N 39°29' W 075°33'0 0.0
2017-Sep-14 19:30N 39°29' W 075°33'0 0.0
2017-Sep-14 19:00N 39°29' W 075°33'0 0.1
2017-Sep-14 18:30N 39°29' W 075°33'0 0.4
2017-Sep-14 18:00N 39°29' W 075°34'0 0.0
2017-Sep-14 17:31N 39°29' W 075°33'0 0.1
2017-Sep-14 17:01N 39°29' W 075°34'0 0.0
2017-Sep-14 16:30N 39°29' W 075°34'0 0.0
2017-Sep-14 16:00N 39°29' W 075°34'0 0.0
2017-Sep-14 15:30N 39°29' W 075°34'0 0.0
2017-Sep-14 15:00N 39°29' W 075°34'0 0.0
2017-Sep-14 14:31N 39°29' W 075°34'0 0.0
2017-Sep-14 14:00N 39°29' W 075°34'0 0.0
2017-Sep-14 13:31N 39°29' W 075°34'0 0.1
2017-Sep-14 13:00N 39°29' W 075°34'0 0.0
2017-Sep-14 12:30N 39°29' W 075°33'0 0.1
2017-Sep-14 12:00N 39°29' W 075°34'0 0.2
2017-Sep-14 11:30N 39°29' W 075°33'0 0.1
2017-Sep-14 11:00N 39°29' W 075°33'0 0.0
2017-Sep-14 10:30N 39°29' W 075°33'0 0.0
2017-Sep-14 10:00N 39°29' W 075°33'0 0.0
2017-Sep-14 09:30N 39°29' W 075°33'0 0.0
2017-Sep-14 09:00N 39°29' W 075°33'0 0.0
2017-Sep-14 08:30N 39°29' W 075°33'0 0.0
2017-Sep-14 08:00N 39°29' W 075°33'0 0.0
2017-Sep-14 07:31N 39°29' W 075°33'0 0.0
2017-Sep-14 07:00N 39°29' W 075°33'0 0.3
2017-Sep-14 06:30N 39°29' W 075°33'0 0.1
2017-Sep-14 06:00N 39°29' W 075°33'0 0.0
2017-Sep-14 05:30N 39°29' W 075°33'0 0.0
2017-Sep-14 05:00N 39°29' W 075°33'0 0.0
2017-Sep-14 04:30N 39°29' W 075°33'0 0.0
2017-Sep-14 04:00N 39°29' W 075°33'0 0.0
2017-Sep-14 03:30N 39°29' W 075°33'0 0.0
2017-Sep-14 03:00N 39°29' W 075°33'0 0.0
2017-Sep-14 02:30N 39°29' W 075°33'0 0.0
2017-Sep-14 02:00N 39°29' W 075°33'0 0.0
2017-Sep-14 01:31N 39°29' W 075°33'0 0.0
2017-Sep-14 01:00N 39°29' W 075°33'0 0.0
2017-Sep-14 00:30N 39°29' W 075°33'3 5.2
2017-Sep-14 00:00N 39°32' W 075°33'4 7.0
2017-Sep-13 23:30N 39°34' W 075°30'0 0.7
2017-Sep-13 23:00N 39°34' W 075°29'2 4.4
2017-Sep-13 22:30N 39°33' W 075°32'4 8.2
2017-Sep-13 22:00N 39°29' W 075°33'0 0.1
2017-Sep-13 21:30N 39°29' W 075°33'0 0.0
2017-Sep-13 21:00N 39°29' W 075°33'0 0.0
2017-Sep-13 20:30N 39°29' W 075°33'0 0.0
2017-Sep-13 20:00N 39°29' W 075°33'0 0.0
2017-Sep-13 19:30N 39°29' W 075°33'0 0.0
2017-Sep-13 19:00N 39°29' W 075°33'0 0.0
2017-Sep-13 18:30N 39°29' W 075°33'0 0.0
2017-Sep-13 18:00N 39°29' W 075°33'0 0.2
2017-Sep-13 17:30N 39°29' W 075°33'0 0.0
2017-Sep-13 17:00N 39°29' W 075°33'0 0.2
2017-Sep-13 16:30N 39°29' W 075°34'0 0.1
2017-Sep-13 16:00N 39°29' W 075°34'0 0.2
2017-Sep-13 15:30N 39°29' W 075°33'0 0.0
2017-Sep-13 15:01N 39°29' W 075°33'0 0.0
2017-Sep-13 14:31N 39°29' W 075°33'0 0.0
2017-Sep-13 14:00N 39°29' W 075°33'0 0.0
2017-Sep-13 13:30N 39°29' W 075°33'0 0.0
2017-Sep-13 13:01N 39°29' W 075°34'0 0.0
2017-Sep-13 12:30N 39°29' W 075°34'0 0.0
2017-Sep-13 12:00N 39°29' W 075°34'0 0.0
2017-Sep-13 11:30N 39°29' W 075°34'0 0.0
2017-Sep-13 11:00N 39°29' W 075°34'0 0.2
2017-Sep-13 10:30N 39°29' W 075°33'0 0.1
2017-Sep-13 10:00N 39°29' W 075°33'0 0.0
2017-Sep-13 09:31N 39°29' W 075°33'0 0.0
2017-Sep-13 09:00N 39°29' W 075°33'0 0.0
2017-Sep-13 08:30N 39°29' W 075°33'0 0.0
2017-Sep-13 08:00N 39°29' W 075°33'0 0.0
2017-Sep-13 07:31N 39°29' W 075°33'0 0.0
2017-Sep-13 07:00N 39°29' W 075°33'0 0.0
2017-Sep-13 06:30N 39°29' W 075°33'0 0.0
2017-Sep-13 06:01N 39°29' W 075°33'0 0.1
2017-Sep-13 05:30N 39°29' W 075°33'0 0.7
2017-Sep-13 05:00N 39°29' W 075°33'0 0.0
2017-Sep-13 04:30N 39°29' W 075°33'0 0.0
2017-Sep-13 04:00N 39°29' W 075°33'0 0.0
2017-Sep-13 03:30N 39°29' W 075°33'0 0.0
2017-Sep-13 03:00N 39°29' W 075°33'0 0.0
2017-Sep-13 02:30N 39°29' W 075°33'0 0.0
2017-Sep-13 02:00N 39°29' W 075°33'0 0.8
2017-Sep-13 01:31N 39°29' W 075°34'0 0.1
2017-Sep-13 01:00N 39°29' W 075°34'0 0.0
2017-Sep-13 00:30N 39°29' W 075°34'0 0.0
2017-Sep-13 00:00N 39°29' W 075°34'0 0.0
2017-Sep-12 23:30N 39°29' W 075°34'0 0.1
2017-Sep-12 23:00N 39°29' W 075°33'0 0.1
2017-Sep-12 22:30N 39°29' W 075°34'0 0.1
2017-Sep-12 22:00N 39°29' W 075°34'0 0.2
2017-Sep-12 21:30N 39°29' W 075°33'0 0.0
2017-Sep-12 21:01N 39°29' W 075°33'0 0.0
2017-Sep-12 20:30N 39°29' W 075°33'0 0.0
2017-Sep-12 20:00N 39°29' W 075°33'0 0.0
2017-Sep-12 19:30N 39°29' W 075°33'0 0.0
2017-Sep-12 19:00N 39°29' W 075°33'0 0.0
2017-Sep-12 18:30N 39°29' W 075°33'0 0.0
2017-Sep-12 18:00N 39°29' W 075°33'0 0.0
2017-Sep-12 17:30N 39°29' W 075°33'0 0.1
2017-Sep-12 17:00N 39°29' W 075°33'0 0.1
2017-Sep-12 16:30N 39°29' W 075°34'0 0.3
2017-Sep-12 16:00N 39°29' W 075°33'0 0.0
2017-Sep-12 15:30N 39°29' W 075°33'0 0.0
2017-Sep-12 15:00N 39°29' W 075°33'0 0.0
2017-Sep-12 14:30N 39°29' W 075°33'0 0.0
2017-Sep-12 14:00N 39°29' W 075°33'0 0.0
2017-Sep-12 13:30N 39°29' W 075°33'0 0.0
2017-Sep-12 13:01N 39°29' W 075°33'0 0.0
2017-Sep-12 12:30N 39°29' W 075°33'0 0.0
2017-Sep-12 09:16N 39°29' W 075°34'0 0.2
2017-Sep-12 09:00N 39°29' W 075°34'0 0.3
2017-Sep-12 08:30N 39°29' W 075°33'0 0.0
2017-Sep-12 08:01N 39°29' W 075°33'0 0.0
2017-Sep-12 07:30N 39°29' W 075°33'0 0.0
2017-Sep-12 07:00N 39°29' W 075°33'0 0.0
2017-Sep-12 06:31N 39°29' W 075°33'0 0.0
2017-Sep-12 06:00N 39°29' W 075°33'0 0.0
2017-Sep-12 05:31N 39°29' W 075°33'0 0.1
2017-Sep-12 05:01N 39°29' W 075°33'0 0.3
2017-Sep-12 04:30N 39°29' W 075°33'0 0.1
2017-Sep-12 04:00N 39°29' W 075°33'0 0.0
2017-Sep-12 03:30N 39°29' W 075°33'0 0.0
2017-Sep-12 03:00N 39°29' W 075°33'0 0.0
2017-Sep-12 02:30N 39°29' W 075°33'0 0.0
2017-Sep-12 02:01N 39°29' W 075°33'0 0.0
2017-Sep-12 01:30N 39°29' W 075°33'0 0.0
2017-Sep-12 01:01N 39°29' W 075°33'0 0.0
2017-Sep-12 00:30N 39°29' W 075°33'0 0.0
2017-Sep-12 00:00N 39°29' W 075°33'0 0.0
2017-Sep-11 23:30N 39°29' W 075°33'0 0.0
2017-Sep-11 23:00N 39°29' W 075°33'0 0.0
2017-Sep-11 22:30N 39°29' W 075°33'1 2.7
2017-Sep-11 22:00N 39°31' W 075°33'4 8.1
2017-Sep-11 21:30N 39°34' W 075°31'1 1.2
2017-Sep-11 21:00N 39°34' W 075°30'3 6.7
2017-Sep-11 20:30N 39°32' W 075°33'2 4.7
2017-Sep-11 20:00N 39°29' W 075°33'0 0.1
2017-Sep-11 19:30N 39°29' W 075°33'0 0.0
2017-Sep-11 19:00N 39°29' W 075°33'0 0.0
2017-Sep-11 18:30N 39°29' W 075°33'0 0.0
2017-Sep-11 18:00N 39°29' W 075°33'0 0.1
2017-Sep-11 17:30N 39°29' W 075°33'0 0.0
2017-Sep-11 17:00N 39°29' W 075°33'0 0.0
2017-Sep-11 16:30N 39°29' W 075°33'0 0.0
2017-Sep-11 16:01N 39°29' W 075°33'0 0.3
2017-Sep-11 15:31N 39°29' W 075°33'0 0.0
2017-Sep-11 15:01N 39°29' W 075°33'0 0.0
2017-Sep-11 14:30N 39°29' W 075°33'0 0.0
2017-Sep-11 14:00N 39°29' W 075°33'0 0.0
2017-Sep-11 13:31N 39°29' W 075°33'0 0.0
2017-Sep-11 13:00N 39°29' W 075°33'0 0.0
2017-Sep-11 12:30N 39°29' W 075°33'0 0.0
2017-Sep-11 12:01N 39°29' W 075°33'0 0.0
2017-Sep-11 11:30N 39°29' W 075°33'0 0.0
2017-Sep-11 11:00N 39°29' W 075°33'0 0.0
2017-Sep-11 10:30N 39°29' W 075°33'0 0.0
2017-Sep-11 10:00N 39°29' W 075°33'0 0.0
2017-Sep-11 09:30N 39°29' W 075°33'0 0.0
2017-Sep-11 09:00N 39°29' W 075°33'0 0.1
2017-Sep-11 08:30N 39°29' W 075°34'0 0.2
2017-Sep-11 08:00N 39°29' W 075°33'0 0.0
2017-Sep-11 07:30N 39°29' W 075°33'0 0.0
2017-Sep-11 07:00N 39°29' W 075°33'0 0.0
2017-Sep-11 06:30N 39°29' W 075°33'0 0.0
2017-Sep-11 06:00N 39°29' W 075°33'0 0.1
2017-Sep-11 05:30N 39°29' W 075°33'0 0.0
2017-Sep-11 05:00N 39°29' W 075°33'  

Dump ship's entire track history